sensor_id;sensor_type;location;lat;lon;timestamp;pressure;altitude;pressure_sealevel;temperature;humidity
71105;BME280;58760;48.716;8.962;2023-02-15T00:01:08;97738.78;;;-0.13;98.25
71105;BME280;58760;48.716;8.962;2023-02-15T00:03:33;97733.03;;;-0.20;98.11
71105;BME280;58760;48.716;8.962;2023-02-15T00:05:59;97731.56;;;-0.25;98.12
71105;BME280;58760;48.716;8.962;2023-02-15T00:08:24;97733.47;;;-0.29;98.00
71105;BME280;58760;48.716;8.962;2023-02-15T00:10:50;97725.06;;;-0.34;98.09
71105;BME280;58760;48.716;8.962;2023-02-15T00:13:15;97725.13;;;-0.35;98.05
71105;BME280;58760;48.716;8.962;2023-02-15T00:15:40;97724.22;;;-0.34;98.23
71105;BME280;58760;48.716;8.962;2023-02-15T00:18:06;97717.53;;;-0.40;97.96
71105;BME280;58760;48.716;8.962;2023-02-15T00:20:31;97715.09;;;-0.43;98.10
71105;BME280;58760;48.716;8.962;2023-02-15T00:22:57;97712.25;;;-0.38;98.32
71105;BME280;58760;48.716;8.962;2023-02-15T00:25:22;97719.16;;;-0.37;98.46
71105;BME280;58760;48.716;8.962;2023-02-15T00:27:47;97717.53;;;-0.40;98.30
71105;BME280;58760;48.716;8.962;2023-02-15T00:30:13;97717.16;;;-0.32;98.69
71105;BME280;58760;48.716;8.962;2023-02-15T00:32:38;97703.72;;;-0.25;98.82
71105;BME280;58760;48.716;8.962;2023-02-15T00:35:04;97711.56;;;-0.25;98.98
71105;BME280;58760;48.716;8.962;2023-02-15T00:37:29;97710.16;;;-0.32;98.78
71105;BME280;58760;48.716;8.962;2023-02-15T00:39:55;97707.72;;;-0.35;98.61
71105;BME280;58760;48.716;8.962;2023-02-15T00:42:20;97706.06;;;-0.36;98.45
71105;BME280;58760;48.716;8.962;2023-02-15T00:44:45;97704.50;;;-0.40;98.73
71105;BME280;58760;48.716;8.962;2023-02-15T00:47:11;97713.09;;;-0.38;98.55
71105;BME280;58760;48.716;8.962;2023-02-15T00:49:36;97705.81;;;-0.31;98.85
71105;BME280;58760;48.716;8.962;2023-02-15T00:52:02;97705.09;;;-0.35;98.90
71105;BME280;58760;48.716;8.962;2023-02-15T00:54:27;97717.06;;;-0.31;98.69
71105;BME280;58760;48.716;8.962;2023-02-15T00:56:52;97703.34;;;-0.34;98.90
71105;BME280;58760;48.716;8.962;2023-02-15T00:59:18;97704.34;;;-0.37;98.83
71105;BME280;58760;48.716;8.962;2023-02-15T01:01:43;97698.06;;;-0.33;98.95
71105;BME280;58760;48.716;8.962;2023-02-15T01:04:08;97700.97;;;-0.39;98.94
71105;BME280;58760;48.716;8.962;2023-02-15T01:06:34;97695.00;;;-0.41;98.99
71105;BME280;58760;48.716;8.962;2023-02-15T01:08:59;97698.59;;;-0.43;98.67
71105;BME280;58760;48.716;8.962;2023-02-15T01:11:24;97703.88;;;-0.45;98.71
71105;BME280;58760;48.716;8.962;2023-02-15T01:13:54;97697.75;;;-0.44;98.77
71105;BME280;58760;48.716;8.962;2023-02-15T01:16:21;97696.75;;;-0.41;98.96
71105;BME280;58760;48.716;8.962;2023-02-15T01:18:46;97701.28;;;-0.45;98.81
71105;BME280;58760;48.716;8.962;2023-02-15T01:21:13;97702.91;;;-0.42;98.93
71105;BME280;58760;48.716;8.962;2023-02-15T01:23:40;97704.72;;;-0.44;98.88
71105;BME280;58760;48.716;8.962;2023-02-15T01:26:06;97704.88;;;-0.47;98.73
71105;BME280;58760;48.716;8.962;2023-02-15T01:28:31;97702.59;;;-0.54;98.36
71105;BME280;58760;48.716;8.962;2023-02-15T01:30:57;97705.56;;;-0.61;98.18
71105;BME280;58760;48.716;8.962;2023-02-15T01:33:24;97712.16;;;-0.54;98.21
71105;BME280;58760;48.716;8.962;2023-02-15T01:35:56;97703.44;;;-0.53;98.49
71105;BME280;58760;48.716;8.962;2023-02-15T01:38:21;97706.78;;;-0.51;98.63
71105;BME280;58760;48.716;8.962;2023-02-15T01:40:50;97707.56;;;-0.66;98.21
71105;BME280;58760;48.716;8.962;2023-02-15T01:43:16;97699.41;;;-0.77;97.87
71105;BME280;58760;48.716;8.962;2023-02-15T01:45:41;97698.88;;;-0.84;97.45
71105;BME280;58760;48.716;8.962;2023-02-15T01:48:25;97690.22;;;-0.84;97.61
71105;BME280;58760;48.716;8.962;2023-02-15T01:50:55;97682.78;;;-0.92;97.44
71105;BME280;58760;48.716;8.962;2023-02-15T01:56:07;97686.59;;;-0.99;97.32
71105;BME280;58760;48.716;8.962;2023-02-15T01:58:35;97694.47;;;-1.00;97.30
71105;BME280;58760;48.716;8.962;2023-02-15T02:01:01;97689.75;;;-0.92;97.71
71105;BME280;58760;48.716;8.962;2023-02-15T02:03:56;97684.06;;;-1.00;97.83
71105;BME280;58760;48.716;8.962;2023-02-15T02:06:25;97686.75;;;-1.02;97.68
71105;BME280;58760;48.716;8.962;2023-02-15T02:08:52;97686.97;;;-1.07;97.65
71105;BME280;58760;48.716;8.962;2023-02-15T02:11:17;97677.53;;;-1.09;97.37
71105;BME280;58760;48.716;8.962;2023-02-15T02:13:44;97678.44;;;-1.10;97.55
71105;BME280;58760;48.716;8.962;2023-02-15T02:19:04;97675.94;;;-1.12;97.60
71105;BME280;58760;48.716;8.962;2023-02-15T02:22:35;97668.97;;;-1.11;97.35
71105;BME280;58760;48.716;8.962;2023-02-15T02:27:42;97675.84;;;-1.10;97.64
71105;BME280;58760;48.716;8.962;2023-02-15T02:35:27;97669.66;;;-1.08;97.89
71105;BME280;58760;48.716;8.962;2023-02-15T02:38:06;97661.22;;;-1.13;97.50
71105;BME280;58760;48.716;8.962;2023-02-15T02:43:31;97667.16;;;-1.28;96.62
71105;BME280;58760;48.716;8.962;2023-02-15T02:46:07;97664.31;;;-1.23;96.61
71105;BME280;58760;48.716;8.962;2023-02-15T02:48:36;97664.00;;;-1.34;96.41
71105;BME280;58760;48.716;8.962;2023-02-15T02:51:01;97658.25;;;-1.41;96.25
71105;BME280;58760;48.716;8.962;2023-02-15T02:53:29;97662.25;;;-1.34;96.47
71105;BME280;58760;48.716;8.962;2023-02-15T02:55:59;97671.81;;;-1.34;96.81
71105;BME280;58760;48.716;8.962;2023-02-15T02:58:48;97662.09;;;-1.31;96.93
71105;BME280;58760;48.716;8.962;2023-02-15T03:01:19;97665.91;;;-1.38;96.84
71105;BME280;58760;48.716;8.962;2023-02-15T03:03:59;97660.84;;;-1.41;96.81
71105;BME280;58760;48.716;8.962;2023-02-15T03:06:54;97665.97;;;-1.39;96.87
71105;BME280;58760;48.716;8.962;2023-02-15T03:09:25;97661.13;;;-1.47;97.09
71105;BME280;58760;48.716;8.962;2023-02-15T03:12:00;97656.91;;;-1.49;96.91
71105;BME280;58760;48.716;8.962;2023-02-15T03:14:27;97649.22;;;-1.52;96.98
71105;BME280;58760;48.716;8.962;2023-02-15T03:16:53;97645.81;;;-1.53;97.21
71105;BME280;58760;48.716;8.962;2023-02-15T03:19:25;97654.03;;;-1.43;97.62
71105;BME280;58760;48.716;8.962;2023-02-15T03:22:03;97650.13;;;-1.35;98.43
71105;BME280;58760;48.716;8.962;2023-02-15T03:24:48;97651.03;;;-1.36;98.90
71105;BME280;58760;48.716;8.962;2023-02-15T03:27:19;97650.00;;;-1.32;99.07
71105;BME280;58760;48.716;8.962;2023-02-15T03:29:51;97649.25;;;-1.34;99.25
71105;BME280;58760;48.716;8.962;2023-02-15T03:32:18;97645.63;;;-1.31;99.35
71105;BME280;58760;48.716;8.962;2023-02-15T03:34:44;97645.41;;;-1.27;99.52
71105;BME280;58760;48.716;8.962;2023-02-15T03:37:25;97653.66;;;-1.36;99.54
71105;BME280;58760;48.716;8.962;2023-02-15T03:39:55;97654.09;;;-1.45;99.40
71105;BME280;58760;48.716;8.962;2023-02-15T03:42:44;97655.94;;;-1.47;99.41
71105;BME280;58760;48.716;8.962;2023-02-15T03:45:14;97664.66;;;-1.48;99.51
71105;BME280;58760;48.716;8.962;2023-02-15T03:47:45;97660.00;;;-1.41;99.55
71105;BME280;58760;48.716;8.962;2023-02-15T03:50:18;97670.63;;;-1.46;99.72
71105;BME280;58760;48.716;8.962;2023-02-15T03:53:06;97662.03;;;-1.48;99.83
71105;BME280;58760;48.716;8.962;2023-02-15T03:55:34;97660.34;;;-1.49;99.92
71105;BME280;58760;48.716;8.962;2023-02-15T03:58:00;97662.88;;;-1.47;100.00
71105;BME280;58760;48.716;8.962;2023-02-15T04:00:49;97657.13;;;-1.54;100.00
71105;BME280;58760;48.716;8.962;2023-02-15T04:03:44;97653.97;;;-1.61;100.00
71105;BME280;58760;48.716;8.962;2023-02-15T04:06:10;97655.56;;;-1.58;99.99
71105;BME280;58760;48.716;8.962;2023-02-15T04:08:35;97659.16;;;-1.61;100.00
71105;BME280;58760;48.716;8.962;2023-02-15T04:11:19;97654.25;;;-1.67;99.88
71105;BME280;58760;48.716;8.962;2023-02-15T04:13:45;97647.56;;;-1.72;99.82
71105;BME280;58760;48.716;8.962;2023-02-15T04:16:10;97647.22;;;-1.65;99.78
71105;BME280;58760;48.716;8.962;2023-02-15T04:18:38;97654.16;;;-1.65;99.71
71105;BME280;58760;48.716;8.962;2023-02-15T04:21:24;97653.41;;;-1.67;99.86
71105;BME280;58760;48.716;8.962;2023-02-15T04:24:09;97652.13;;;-1.59;99.81
71105;BME280;58760;48.716;8.962;2023-02-15T04:26:54;97662.53;;;-1.59;99.90
71105;BME280;58760;48.716;8.962;2023-02-15T04:29:22;97651.41;;;-1.62;99.82
71105;BME280;58760;48.716;8.962;2023-02-15T04:31:47;97642.66;;;-1.60;99.95
71105;BME280;58760;48.716;8.962;2023-02-15T04:34:13;97633.91;;;-1.59;99.88
71105;BME280;58760;48.716;8.962;2023-02-15T04:36:39;97640.06;;;-1.60;99.85
71105;BME280;58760;48.716;8.962;2023-02-15T04:39:06;97644.16;;;-1.55;99.61
71105;BME280;58760;48.716;8.962;2023-02-15T04:41:32;97648.63;;;-1.58;99.74
71105;BME280;58760;48.716;8.962;2023-02-15T04:43:57;97645.31;;;-1.61;99.54
71105;BME280;58760;48.716;8.962;2023-02-15T04:46:24;97641.16;;;-1.65;99.44
71105;BME280;58760;48.716;8.962;2023-02-15T04:48:50;97643.28;;;-1.54;99.34
71105;BME280;58760;48.716;8.962;2023-02-15T04:51:15;97652.63;;;-1.50;98.53
71105;BME280;58760;48.716;8.962;2023-02-15T04:53:40;97642.84;;;-1.64;98.34
71105;BME280;58760;48.716;8.962;2023-02-15T04:56:06;97640.47;;;-1.50;98.47
71105;BME280;58760;48.716;8.962;2023-02-15T05:01:56;97626.38;;;-1.46;98.11
71105;BME280;58760;48.716;8.962;2023-02-15T05:04:21;97625.06;;;-1.54;98.35
71105;BME280;58760;48.716;8.962;2023-02-15T05:06:47;97625.81;;;-1.52;98.50
71105;BME280;58760;48.716;8.962;2023-02-15T05:09:12;97625.22;;;-1.22;97.79
71105;BME280;58760;48.716;8.962;2023-02-15T05:11:38;97618.97;;;-1.36;97.37
71105;BME280;58760;48.716;8.962;2023-02-15T05:14:03;97623.75;;;-1.27;97.49
71105;BME280;58760;48.716;8.962;2023-02-15T05:16:29;97620.47;;;-1.49;97.17
71105;BME280;58760;48.716;8.962;2023-02-15T05:18:54;97621.59;;;-1.55;97.38
71105;BME280;58760;48.716;8.962;2023-02-15T05:21:19;97613.34;;;-1.63;97.57
71105;BME280;58760;48.716;8.962;2023-02-15T05:23:45;97616.41;;;-1.74;97.64
71105;BME280;58760;48.716;8.962;2023-02-15T05:26:17;97629.63;;;-1.78;97.48
71105;BME280;58760;48.716;8.962;2023-02-15T05:29:02;97626.41;;;-1.83;97.65
71105;BME280;58760;48.716;8.962;2023-02-15T05:31:28;97625.84;;;-1.90;98.13
71105;BME280;58760;48.716;8.962;2023-02-15T05:33:53;97622.97;;;-2.02;97.64
71105;BME280;58760;48.716;8.962;2023-02-15T05:36:18;97623.81;;;-2.02;97.54
71105;BME280;58760;48.716;8.962;2023-02-15T05:38:44;97621.06;;;-1.99;97.66
71105;BME280;58760;48.716;8.962;2023-02-15T05:41:10;97623.72;;;-2.00;97.43
71105;BME280;58760;48.716;8.962;2023-02-15T05:43:37;97628.94;;;-2.00;97.32
71105;BME280;58760;48.716;8.962;2023-02-15T05:46:02;97631.94;;;-2.09;97.08
71105;BME280;58760;48.716;8.962;2023-02-15T05:48:28;97643.81;;;-2.04;96.42
71105;BME280;58760;48.716;8.962;2023-02-15T05:51:08;97637.47;;;-2.17;95.38
71105;BME280;58760;48.716;8.962;2023-02-15T05:53:36;97632.56;;;-2.23;95.04
71105;BME280;58760;48.716;8.962;2023-02-15T05:56:02;97635.88;;;-2.40;95.17
71105;BME280;58760;48.716;8.962;2023-02-15T05:58:34;97639.84;;;-2.31;95.54
71105;BME280;58760;48.716;8.962;2023-02-15T06:01:06;97638.59;;;-2.23;96.22
71105;BME280;58760;48.716;8.962;2023-02-15T06:03:32;97643.94;;;-2.26;96.61
71105;BME280;58760;48.716;8.962;2023-02-15T06:05:57;97641.78;;;-2.16;97.16
71105;BME280;58760;48.716;8.962;2023-02-15T06:08:22;97640.88;;;-2.15;97.31
71105;BME280;58760;48.716;8.962;2023-02-15T06:10:48;97649.38;;;-2.12;97.77
71105;BME280;58760;48.716;8.962;2023-02-15T06:13:13;97641.59;;;-2.12;98.07
71105;BME280;58760;48.716;8.962;2023-02-15T06:15:38;97647.47;;;-2.08;98.08
71105;BME280;58760;48.716;8.962;2023-02-15T06:18:04;97645.78;;;-2.09;98.22
71105;BME280;58760;48.716;8.962;2023-02-15T06:20:29;97655.34;;;-2.09;98.25
71105;BME280;58760;48.716;8.962;2023-02-15T06:22:54;97653.50;;;-2.07;98.03
71105;BME280;58760;48.716;8.962;2023-02-15T06:25:20;97649.88;;;-2.03;98.22
71105;BME280;58760;48.716;8.962;2023-02-15T06:27:45;97654.22;;;-2.04;98.24
71105;BME280;58760;48.716;8.962;2023-02-15T06:30:11;97649.16;;;-2.07;98.19
71105;BME280;58760;48.716;8.962;2023-02-15T06:32:37;97654.88;;;-1.99;98.32
71105;BME280;58760;48.716;8.962;2023-02-15T06:35:03;97656.34;;;-1.93;98.34
71105;BME280;58760;48.716;8.962;2023-02-15T06:37:28;97667.75;;;-1.96;98.20
71105;BME280;58760;48.716;8.962;2023-02-15T06:39:54;97661.88;;;-2.01;98.16
71105;BME280;58760;48.716;8.962;2023-02-15T06:42:20;97664.03;;;-2.11;97.89
71105;BME280;58760;48.716;8.962;2023-02-15T06:44:46;97667.91;;;-2.19;97.59
71105;BME280;58760;48.716;8.962;2023-02-15T06:47:11;97664.03;;;-2.11;97.45
71105;BME280;58760;48.716;8.962;2023-02-15T06:49:37;97661.44;;;-2.11;97.65
71105;BME280;58760;48.716;8.962;2023-02-15T06:52:03;97665.47;;;-2.03;97.76
71105;BME280;58760;48.716;8.962;2023-02-15T06:54:29;97661.03;;;-2.01;97.72
71105;BME280;58760;48.716;8.962;2023-02-15T06:56:54;97660.91;;;-1.98;97.67
71105;BME280;58760;48.716;8.962;2023-02-15T06:59:20;97658.88;;;-1.92;97.74
71105;BME280;58760;48.716;8.962;2023-02-15T07:01:45;97657.47;;;-1.80;97.76
71105;BME280;58760;48.716;8.962;2023-02-15T07:04:10;97660.56;;;-1.72;97.89
71105;BME280;58760;48.716;8.962;2023-02-15T07:06:36;97667.16;;;-1.65;97.86
71105;BME280;58760;48.716;8.962;2023-02-15T07:09:01;97666.13;;;-1.61;97.79
71105;BME280;58760;48.716;8.962;2023-02-15T07:11:27;97663.94;;;-1.51;97.75
71105;BME280;58760;48.716;8.962;2023-02-15T07:14:11;97665.25;;;-1.43;97.73
71105;BME280;58760;48.716;8.962;2023-02-15T07:16:36;97665.81;;;-1.36;97.31
71105;BME280;58760;48.716;8.962;2023-02-15T07:19:01;97657.94;;;-1.35;97.33
71105;BME280;58760;48.716;8.962;2023-02-15T07:21:27;97651.28;;;-1.04;97.17
71105;BME280;58760;48.716;8.962;2023-02-15T07:23:56;97666.41;;;-1.13;96.20
71105;BME280;58760;48.716;8.962;2023-02-15T07:26:22;97659.91;;;-1.04;95.99
71105;BME280;58760;48.716;8.962;2023-02-15T07:28:47;97660.41;;;-0.96;95.97
71105;BME280;58760;48.716;8.962;2023-02-15T07:31:13;97660.50;;;-0.80;96.14
71105;BME280;58760;48.716;8.962;2023-02-15T07:33:38;97660.03;;;-0.71;95.91
71105;BME280;58760;48.716;8.962;2023-02-15T07:36:04;97658.50;;;-0.58;95.79
71105;BME280;58760;48.716;8.962;2023-02-15T07:38:32;97652.22;;;-0.54;95.28
71105;BME280;58760;48.716;8.962;2023-02-15T07:41:03;97655.19;;;-0.44;94.48
71105;BME280;58760;48.716;8.962;2023-02-15T07:43:29;97651.91;;;-0.48;93.03
71105;BME280;58760;48.716;8.962;2023-02-15T07:45:58;97657.13;;;-0.48;92.33
71105;BME280;58760;48.716;8.962;2023-02-15T07:48:24;97655.44;;;-0.49;91.67
71105;BME280;58760;48.716;8.962;2023-02-15T07:50:49;97656.50;;;-0.36;91.18
71105;BME280;58760;48.716;8.962;2023-02-15T07:53:15;97650.03;;;-0.29;90.28
71105;BME280;58760;48.716;8.962;2023-02-15T07:55:40;97656.50;;;-0.03;91.90
71105;BME280;58760;48.716;8.962;2023-02-15T07:58:05;97648.75;;;0.28;90.72
71105;BME280;58760;48.716;8.962;2023-02-15T08:00:31;97659.09;;;0.30;90.87
71105;BME280;58760;48.716;8.962;2023-02-15T08:03:16;97657.44;;;0.60;90.98
71105;BME280;58760;48.716;8.962;2023-02-15T08:05:43;97652.22;;;0.76;88.83
71105;BME280;58760;48.716;8.962;2023-02-15T08:08:10;97652.72;;;0.82;88.43
71105;BME280;58760;48.716;8.962;2023-02-15T08:11:20;97651.19;;;0.78;88.92
71105;BME280;58760;48.716;8.962;2023-02-15T08:14:04;97655.25;;;0.84;88.96
71105;BME280;58760;48.716;8.962;2023-02-15T08:16:37;97654.13;;;0.88;89.11
71105;BME280;58760;48.716;8.962;2023-02-15T08:21:31;97647.88;;;1.06;88.86
71105;BME280;58760;48.716;8.962;2023-02-15T08:23:57;97653.84;;;1.08;88.40
71105;BME280;58760;48.716;8.962;2023-02-15T08:26:23;97644.13;;;1.26;88.01
71105;BME280;58760;48.716;8.962;2023-02-15T08:28:50;97653.63;;;1.42;87.17
71105;BME280;58760;48.716;8.962;2023-02-15T08:31:16;97652.78;;;1.42;87.15
71105;BME280;58760;48.716;8.962;2023-02-15T08:33:43;97653.69;;;1.41;87.75
71105;BME280;58760;48.716;8.962;2023-02-15T08:36:17;97645.28;;;1.66;86.93
71105;BME280;58760;48.716;8.962;2023-02-15T08:38:43;97647.78;;;1.67;86.91
71105;BME280;58760;48.716;8.962;2023-02-15T08:41:11;97643.94;;;1.73;86.85
71105;BME280;58760;48.716;8.962;2023-02-15T08:43:36;97644.59;;;1.76;86.75
71105;BME280;58760;48.716;8.962;2023-02-15T08:46:02;97648.72;;;1.80;86.97
71105;BME280;58760;48.716;8.962;2023-02-15T08:48:27;97645.38;;;1.78;87.32
71105;BME280;58760;48.716;8.962;2023-02-15T08:50:53;97650.06;;;1.87;87.71
71105;BME280;58760;48.716;8.962;2023-02-15T08:53:19;97639.31;;;2.06;87.45
71105;BME280;58760;48.716;8.962;2023-02-15T08:55:47;97635.47;;;2.26;86.23
71105;BME280;58760;48.716;8.962;2023-02-15T08:58:12;97634.03;;;2.48;86.18
71105;BME280;58760;48.716;8.962;2023-02-15T09:00:38;97630.28;;;2.67;84.51
71105;BME280;58760;48.716;8.962;2023-02-15T09:03:03;97632.16;;;2.50;84.98
71105;BME280;58760;48.716;8.962;2023-02-15T09:05:28;97629.44;;;2.66;85.59
71105;BME280;58760;48.716;8.962;2023-02-15T09:07:54;97635.38;;;2.82;83.98
71105;BME280;58760;48.716;8.962;2023-02-15T09:10:19;97627.84;;;2.90;84.14
71105;BME280;58760;48.716;8.962;2023-02-15T09:12:45;97632.38;;;2.88;84.15
71105;BME280;58760;48.716;8.962;2023-02-15T09:15:11;97620.16;;;3.01;83.94
71105;BME280;58760;48.716;8.962;2023-02-15T09:17:36;97616.88;;;3.25;83.52
71105;BME280;58760;48.716;8.962;2023-02-15T09:20:01;97612.88;;;3.32;83.00
71105;BME280;58760;48.716;8.962;2023-02-15T09:22:27;97614.16;;;3.39;82.79
71105;BME280;58760;48.716;8.962;2023-02-15T09:24:53;97613.16;;;3.66;81.68
71105;BME280;58760;48.716;8.962;2023-02-15T09:27:18;97606.22;;;3.65;81.48
71105;BME280;58760;48.716;8.962;2023-02-15T09:29:43;97600.34;;;3.87;81.20
71105;BME280;58760;48.716;8.962;2023-02-15T09:32:13;97596.97;;;3.85;81.24
71105;BME280;58760;48.716;8.962;2023-02-15T09:34:38;97601.38;;;3.97;79.82
71105;BME280;58760;48.716;8.962;2023-02-15T09:37:05;97603.78;;;4.00;78.58
71105;BME280;58760;48.716;8.962;2023-02-15T09:39:31;97599.19;;;3.91;79.47
71105;BME280;58760;48.716;8.962;2023-02-15T09:53:21;97598.41;;;4.27;77.35
71105;BME280;58760;48.716;8.962;2023-02-15T10:15:53;97590.63;;;5.68;71.25
71105;BME280;58760;48.716;8.962;2023-02-15T10:18:38;97588.06;;;5.90;69.68
71105;BME280;58760;48.716;8.962;2023-02-15T10:21:22;97587.56;;;5.85;70.41
71105;BME280;58760;48.716;8.962;2023-02-15T10:26:43;97583.78;;;6.34;69.17
71105;BME280;58760;48.716;8.962;2023-02-15T10:34:37;97569.81;;;6.54;68.35
71105;BME280;58760;48.716;8.962;2023-02-15T10:43:15;97554.78;;;6.76;67.64
71105;BME280;58760;48.716;8.962;2023-02-15T10:45:56;97564.53;;;6.76;66.62
71105;BME280;58760;48.716;8.962;2023-02-15T10:48:50;97555.03;;;6.73;68.37
71105;BME280;58760;48.716;8.962;2023-02-15T10:57:09;97551.06;;;7.63;64.57
71105;BME280;58760;48.716;8.962;2023-02-15T10:59:59;97548.38;;;7.84;62.32
71105;BME280;58760;48.716;8.962;2023-02-15T11:03:05;97550.31;;;8.03;61.30
71105;BME280;58760;48.716;8.962;2023-02-15T11:08:24;97553.34;;;7.98;61.99
71105;BME280;58760;48.716;8.962;2023-02-15T11:10:55;97537.47;;;7.98;62.33
71105;BME280;58760;48.716;8.962;2023-02-15T11:13:26;97533.50;;;8.13;60.46
71105;BME280;58760;48.716;8.962;2023-02-15T11:15:57;97530.16;;;8.11;60.51
71105;BME280;58760;48.716;8.962;2023-02-15T11:18:32;97527.81;;;8.38;58.84
71105;BME280;58760;48.716;8.962;2023-02-15T11:23:44;97518.16;;;8.77;60.04
71105;BME280;58760;48.716;8.962;2023-02-15T11:26:18;97521.22;;;8.92;60.38
71105;BME280;58760;48.716;8.962;2023-02-15T11:32:03;97517.88;;;9.09;58.24
71105;BME280;58760;48.716;8.962;2023-02-15T11:34:49;97509.63;;;9.41;56.34
71105;BME280;58760;48.716;8.962;2023-02-15T11:37:19;97514.75;;;9.62;54.72
71105;BME280;58760;48.716;8.962;2023-02-15T11:39:49;97516.69;;;9.60;53.63
71105;BME280;58760;48.716;8.962;2023-02-15T11:42:20;97516.09;;;9.85;53.31
71105;BME280;58760;48.716;8.962;2023-02-15T11:45:19;97512.97;;;9.99;52.86
71105;BME280;58760;48.716;8.962;2023-02-15T11:47:46;97508.75;;;10.06;53.50
71105;BME280;58760;48.716;8.962;2023-02-15T11:50:16;97502.59;;;10.15;51.58
71105;BME280;58760;48.716;8.962;2023-02-15T11:52:43;97499.47;;;10.29;51.46
71105;BME280;58760;48.716;8.962;2023-02-15T11:55:14;97501.59;;;10.53;50.34
71105;BME280;58760;48.716;8.962;2023-02-15T11:57:43;97492.59;;;10.81;49.58
71105;BME280;58760;48.716;8.962;2023-02-15T12:00:20;97490.25;;;11.31;48.05
71105;BME280;58760;48.716;8.962;2023-02-15T12:02:53;97491.97;;;11.84;45.50
71105;BME280;58760;48.716;8.962;2023-02-15T12:05:21;97477.97;;;12.41;44.49
71105;BME280;58760;48.716;8.962;2023-02-15T12:08:00;97469.69;;;14.92;40.11
71105;BME280;58760;48.716;8.962;2023-02-15T12:10:31;97463.28;;;18.80;32.48
71105;BME280;58760;48.716;8.962;2023-02-15T12:13:19;97458.06;;;19.40;30.64
71105;BME280;58760;48.716;8.962;2023-02-15T12:15:46;97471.13;;;16.58;33.85
71105;BME280;58760;48.716;8.962;2023-02-15T12:18:33;97461.25;;;15.48;36.83
71105;BME280;58760;48.716;8.962;2023-02-15T12:21:03;97458.69;;;18.68;32.37
71105;BME280;58760;48.716;8.962;2023-02-15T12:23:32;97452.13;;;21.18;27.86
71105;BME280;58760;48.716;8.962;2023-02-15T12:25:58;97446.41;;;23.05;24.06
71105;BME280;58760;48.716;8.962;2023-02-15T12:28:37;97444.94;;;23.32;23.59
71105;BME280;58760;48.716;8.962;2023-02-15T12:31:07;97438.72;;;23.84;22.02
71105;BME280;58760;48.716;8.962;2023-02-15T12:33:38;97434.28;;;24.25;22.20
71105;BME280;58760;48.716;8.962;2023-02-15T12:36:22;97435.78;;;23.98;20.94
71105;BME280;58760;48.716;8.962;2023-02-15T12:41:32;97429.44;;;24.38;20.67
71105;BME280;58760;48.716;8.962;2023-02-15T12:44:06;97423.47;;;24.76;21.73
71105;BME280;58760;48.716;8.962;2023-02-15T12:46:31;97414.97;;;25.13;20.93
71105;BME280;58760;48.716;8.962;2023-02-15T12:49:17;97410.94;;;26.27;19.17
71105;BME280;58760;48.716;8.962;2023-02-15T12:54:43;97394.94;;;27.76;17.63
71105;BME280;58760;48.716;8.962;2023-02-15T12:57:31;97394.28;;;28.00;16.99
71105;BME280;58760;48.716;8.962;2023-02-15T13:00:00;97387.81;;;28.07;16.76
71105;BME280;58760;48.716;8.962;2023-02-15T13:02:30;97386.72;;;26.90;17.67
71105;BME280;58760;48.716;8.962;2023-02-15T13:04:57;97386.94;;;28.01;17.38
71105;BME280;58760;48.716;8.962;2023-02-15T13:07:32;97383.16;;;28.07;17.75
71105;BME280;58760;48.716;8.962;2023-02-15T13:09:58;97378.41;;;27.61;18.33
71105;BME280;58760;48.716;8.962;2023-02-15T13:12:25;97378.78;;;28.58;17.08
71105;BME280;58760;48.716;8.962;2023-02-15T13:14:56;97376.28;;;29.14;16.29
71105;BME280;58760;48.716;8.962;2023-02-15T13:17:27;97373.25;;;29.05;15.98
71105;BME280;58760;48.716;8.962;2023-02-15T13:19:57;97370.47;;;28.85;16.42
71105;BME280;58760;48.716;8.962;2023-02-15T13:22:42;97365.53;;;28.82;16.86
71105;BME280;58760;48.716;8.962;2023-02-15T13:25:21;97365.97;;;29.26;17.85
71105;BME280;58760;48.716;8.962;2023-02-15T13:27:51;97357.47;;;28.55;18.06
71105;BME280;58760;48.716;8.962;2023-02-15T13:30:23;97363.78;;;29.58;16.95
71105;BME280;58760;48.716;8.962;2023-02-15T13:32:58;97358.03;;;29.39;17.44
71105;BME280;58760;48.716;8.962;2023-02-15T13:35:28;97351.94;;;30.43;17.22
71105;BME280;58760;48.716;8.962;2023-02-15T13:38:07;97349.81;;;30.84;16.76
71105;BME280;58760;48.716;8.962;2023-02-15T13:40:58;97340.66;;;30.55;16.28
71105;BME280;58760;48.716;8.962;2023-02-15T13:43:41;97343.16;;;30.36;16.95
71105;BME280;58760;48.716;8.962;2023-02-15T13:48:46;97345.50;;;30.73;17.20
71105;BME280;58760;48.716;8.962;2023-02-15T13:51:37;97339.00;;;30.59;18.55
71105;BME280;58760;48.716;8.962;2023-02-15T13:54:20;97331.38;;;31.05;16.84
71105;BME280;58760;48.716;8.962;2023-02-15T14:03:04;97323.63;;;31.51;16.88
71105;BME280;58760;48.716;8.962;2023-02-15T14:11:30;97334.38;;;31.47;15.84
71105;BME280;58760;48.716;8.962;2023-02-15T14:17:41;97327.88;;;31.33;17.01
71105;BME280;58760;48.716;8.962;2023-02-15T14:21:03;97332.38;;;31.19;16.69
71105;BME280;58760;48.716;8.962;2023-02-15T14:25:48;97325.84;;;30.56;16.46
71105;BME280;58760;48.716;8.962;2023-02-15T14:28:24;97328.34;;;30.52;16.56
71105;BME280;58760;48.716;8.962;2023-02-15T14:30:53;97328.06;;;30.39;16.80
71105;BME280;58760;48.716;8.962;2023-02-15T14:33:38;97321.50;;;31.43;16.20
71105;BME280;58760;48.716;8.962;2023-02-15T14:36:11;97318.06;;;31.90;15.43
71105;BME280;58760;48.716;8.962;2023-02-15T14:38:54;97325.97;;;31.96;15.19
71105;BME280;58760;48.716;8.962;2023-02-15T14:41:36;97320.63;;;30.59;16.38
71105;BME280;58760;48.716;8.962;2023-02-15T14:46:47;97315.91;;;31.58;15.12
71105;BME280;58760;48.716;8.962;2023-02-15T14:49:23;97317.97;;;30.93;15.62
71105;BME280;58760;48.716;8.962;2023-02-15T14:56:45;97326.47;;;28.86;17.27
71105;BME280;58760;48.716;8.962;2023-02-15T14:59:19;97330.09;;;29.22;16.81
71105;BME280;58760;48.716;8.962;2023-02-15T15:04:33;97356.03;;;21.35;25.74
71105;BME280;58760;48.716;8.962;2023-02-15T15:07:14;97355.13;;;18.98;29.87
71105;BME280;58760;48.716;8.962;2023-02-15T15:09:45;97363.72;;;18.07;32.52
71105;BME280;58760;48.716;8.962;2023-02-15T15:14:45;97357.94;;;15.62;37.55
71105;BME280;58760;48.716;8.962;2023-02-15T15:17:12;97367.22;;;14.99;39.04
71105;BME280;58760;48.716;8.962;2023-02-15T15:22:20;97372.75;;;14.52;40.66
71105;BME280;58760;48.716;8.962;2023-02-15T15:24:47;97373.38;;;14.24;42.84